createdAt,value
2022-09-23T00:00:18.003Z,36.73
2022-09-23T00:01:48.038Z,36.68
2022-09-23T00:02:56.204Z,36.62
2022-09-23T00:04:05.629Z,36.60
2022-09-23T00:05:13.778Z,36.48
2022-09-23T00:06:24.213Z,36.41
2022-09-23T00:07:34.586Z,36.31
2022-09-23T00:08:43.614Z,36.36
2022-09-23T00:09:52.975Z,36.22
2022-09-23T00:11:13.522Z,36.21
2022-09-23T00:12:22.428Z,36.30
2022-09-23T00:13:31.354Z,36.24
2022-09-23T00:14:42.130Z,36.13
2022-09-23T00:15:51.039Z,35.80
2022-09-23T00:17:02.661Z,35.74
2022-09-23T00:18:11.010Z,35.80
2022-09-23T00:19:20.716Z,35.55
2022-09-23T00:20:30.056Z,35.61
2022-09-23T00:21:38.844Z,35.62
2022-09-23T00:22:47.168Z,35.65
2022-09-23T00:23:55.194Z,35.56
2022-09-23T00:25:03.682Z,35.44
2022-09-23T00:26:12.136Z,35.41
2022-09-23T00:27:23.591Z,35.21
2022-09-23T00:28:35.673Z,35.04
2022-09-23T00:29:44.465Z,34.82
2022-09-23T00:30:54.225Z,34.75
2022-09-23T00:32:02.525Z,34.72
2022-09-23T00:33:11.612Z,34.54
2022-09-23T00:34:20.422Z,34.45
2022-09-23T00:35:31.195Z,34.37
2022-09-23T00:36:40.369Z,34.32
2022-09-23T00:37:50.677Z,34.30
2022-09-23T00:39:04.163Z,34.20
2022-09-23T00:40:15.253Z,34.12
2022-09-23T00:41:24.419Z,34.03
2022-09-23T00:42:35.048Z,33.94
2022-09-23T00:44:29.825Z,33.82
2022-09-23T00:45:39.146Z,33.77
2022-09-23T00:46:47.655Z,33.77
2022-09-23T00:48:04.944Z,33.80
2022-09-23T00:49:27.726Z,33.67
2022-09-23T00:50:48.003Z,33.68
2022-09-23T00:52:01.297Z,33.64
2022-09-23T00:53:11.938Z,33.54
2022-09-23T00:54:20.188Z,33.47
2022-09-23T00:55:35.665Z,33.39
2022-09-23T00:56:47.775Z,33.29
2022-09-23T00:57:58.565Z,33.11
2022-09-23T00:59:10.419Z,32.90
2022-09-23T01:00:18.495Z,32.74
2022-09-23T01:01:27.677Z,32.60
2022-09-23T01:02:37.055Z,32.42
2022-09-23T01:03:47.126Z,32.23
2022-09-23T01:04:55.235Z,32.02
2022-09-23T01:06:07.184Z,31.82
2022-09-23T01:07:15.264Z,31.66
2022-09-23T01:08:26.091Z,31.52
2022-09-23T01:09:34.622Z,31.37
2022-09-23T01:11:07.434Z,31.19
2022-09-23T01:12:21.475Z,30.99
2022-09-23T01:14:08.557Z,30.82
2022-09-23T01:15:18.275Z,30.55
2022-09-23T01:16:41.755Z,30.33
2022-09-23T01:18:03.557Z,30.09
2022-09-23T01:19:39.504Z,29.89
2022-09-23T01:21:01.061Z,29.66
2022-09-23T01:22:30.957Z,29.50
2022-09-23T01:24:07.955Z,29.32
2022-09-23T01:25:55.767Z,29.13
2022-09-23T01:27:33.007Z,28.92
2022-09-23T01:29:05.579Z,28.74
2022-09-23T01:30:49.932Z,28.60
2022-09-23T01:32:21.529Z,28.46
2022-09-23T01:33:37.048Z,28.34
2022-09-23T01:34:50.284Z,28.25
2022-09-23T01:36:11.922Z,28.17
2022-09-23T01:37:45.765Z,28.07
2022-09-23T01:39:00.197Z,27.97
2022-09-23T01:40:23.398Z,27.89
2022-09-23T01:42:02.749Z,27.80
2022-09-23T01:43:11.694Z,27.70
2022-09-23T01:44:31.773Z,27.63
2022-09-23T01:45:49.124Z,27.55
2022-09-23T01:47:12.243Z,27.48
2022-09-23T01:48:39.127Z,27.40
2022-09-23T01:50:03.488Z,27.31
2022-09-23T01:51:36.128Z,27.22
2022-09-23T01:52:49.039Z,27.14
2022-09-23T01:54:22.829Z,27.06
2022-09-23T01:55:39.959Z,26.97
2022-09-23T01:56:54.004Z,26.91
2022-09-23T01:58:19.916Z,26.85
2022-09-23T01:59:54.394Z,26.79
2022-09-23T02:01:05.575Z,26.71
2022-09-23T02:02:45.889Z,26.66
2022-09-23T02:04:24.129Z,26.59
2022-09-23T02:05:40.682Z,26.51
2022-09-23T02:06:55.078Z,26.47
2022-09-23T02:08:19.206Z,26.43
2022-09-23T02:09:30.250Z,26.36
2022-09-23T02:11:06.157Z,26.30
2022-09-23T02:12:19.165Z,26.24
2022-09-23T02:13:58.646Z,26.16
2022-09-23T02:15:18.059Z,26.08
2022-09-23T02:16:53.741Z,26.00
2022-09-23T02:18:11.779Z,25.95
2022-09-23T02:19:52.686Z,25.88
2022-09-23T02:21:06.752Z,25.81
2022-09-23T02:22:45.139Z,25.75
2022-09-23T02:23:57.525Z,25.67
2022-09-23T02:25:06.083Z,25.60
2022-09-23T02:26:40.719Z,25.54
2022-09-23T02:27:59.765Z,25.48
2022-09-23T02:29:55.018Z,25.42
2022-09-23T02:31:48.251Z,25.33
2022-09-23T02:33:20.672Z,25.22
2022-09-23T02:35:05.255Z,25.16
2022-09-23T02:36:34.023Z,25.10
2022-09-23T02:37:54.901Z,25.08
2022-09-23T02:39:06.726Z,25.06
2022-09-23T02:41:01.811Z,25.02
2022-09-23T02:42:12.724Z,24.94
2022-09-23T02:43:31.779Z,24.92
2022-09-23T02:44:43.192Z,24.89
2022-09-23T02:45:51.926Z,24.84
2022-09-23T02:47:00.724Z,24.80
2022-09-23T02:48:23.331Z,24.78
2022-09-23T02:49:34.179Z,24.75
2022-09-23T02:50:45.835Z,24.71
2022-09-23T02:51:56.646Z,24.66
2022-09-23T02:53:06.157Z,24.61
2022-09-23T02:54:17.253Z,24.56
2022-09-23T02:55:26.251Z,24.53
2022-09-23T02:56:37.664Z,24.50
2022-09-23T02:57:49.877Z,24.46
2022-09-23T02:58:57.738Z,24.39
2022-09-23T03:00:09.886Z,24.33
2022-09-23T03:01:49.228Z,24.26
2022-09-23T03:03:20.739Z,24.18
2022-09-23T03:05:00.422Z,24.13
2022-09-23T03:06:31.877Z,24.08
2022-09-23T03:07:52.007Z,24.04
2022-09-23T03:09:12.467Z,23.98
2022-09-23T03:10:46.082Z,23.93
2022-09-23T03:12:00.228Z,23.95
2022-09-23T03:13:25.051Z,23.95
2022-09-23T03:15:00.565Z,23.91
2022-09-23T03:16:18.129Z,23.85
2022-09-23T03:18:11.141Z,23.82
2022-09-23T03:19:24.692Z,23.78
2022-09-23T03:20:36.837Z,23.76
2022-09-23T03:22:07.915Z,23.77
2022-09-23T03:23:16.975Z,23.78
2022-09-23T03:24:25.933Z,23.78
2022-09-23T03:25:35.336Z,23.76
2022-09-23T03:26:45.051Z,23.72
2022-09-23T03:27:58.631Z,23.67
2022-09-23T03:29:12.818Z,23.63
2022-09-23T03:30:23.474Z,23.57
2022-09-23T03:31:35.499Z,23.52
2022-09-23T03:32:50.546Z,23.47
2022-09-23T03:33:59.568Z,23.46
2022-09-23T03:35:08.225Z,23.46
2022-09-23T03:36:35.763Z,23.41
2022-09-23T03:37:47.539Z,23.34
2022-09-23T03:39:03.694Z,23.30
2022-09-23T03:40:30.856Z,23.27
2022-09-23T03:41:52.529Z,23.25
2022-09-23T03:43:06.020Z,23.22
2022-09-23T03:44:14.855Z,23.20
2022-09-23T03:45:35.752Z,23.17
2022-09-23T03:46:51.597Z,23.15
2022-09-23T03:48:02.838Z,23.10
2022-09-23T03:49:29.660Z,23.06
2022-09-23T03:50:41.186Z,23.02
2022-09-23T03:51:50.522Z,22.97
2022-09-23T03:53:02.868Z,22.91
2022-09-23T03:54:11.532Z,22.83
2022-09-23T03:55:21.368Z,22.79
2022-09-23T03:56:30.036Z,22.76
2022-09-23T03:57:39.101Z,22.74
2022-09-23T03:58:48.823Z,22.72
2022-09-23T04:00:00.881Z,22.69
2022-09-23T04:01:22.961Z,22.65
2022-09-23T04:02:32.320Z,22.63
2022-09-23T04:03:43.166Z,22.61
2022-09-23T04:04:53.396Z,22.58
2022-09-23T04:06:03.481Z,22.54
2022-09-23T04:07:12.407Z,22.50
2022-09-23T04:08:20.448Z,22.46
2022-09-23T04:09:30.736Z,22.41
2022-09-23T04:10:42.814Z,22.35
2022-09-23T04:11:52.769Z,22.29
2022-09-23T04:13:00.555Z,22.23
2022-09-23T04:14:09.914Z,22.21
2022-09-23T04:15:17.676Z,22.18
2022-09-23T04:16:26.787Z,22.18
2022-09-23T04:17:35.037Z,22.16
2022-09-23T04:18:44.686Z,22.14
2022-09-23T04:19:55.943Z,22.11
2022-09-23T04:21:05.611Z,22.08
2022-09-23T04:22:13.789Z,22.06
2022-09-23T04:23:22.963Z,22.06
2022-09-23T04:24:34.564Z,22.04
2022-09-23T04:25:52.760Z,22.04
2022-09-23T04:27:03.880Z,22.04
2022-09-23T04:28:12.482Z,22.05
2022-09-23T04:29:20.232Z,22.09
2022-09-23T04:30:28.719Z,22.11
2022-09-23T04:31:38.618Z,22.10
2022-09-23T04:32:49.775Z,22.09
2022-09-23T04:33:58.081Z,22.07
2022-09-23T04:35:07.252Z,22.06
2022-09-23T04:36:15.065Z,22.04
2022-09-23T04:37:23.592Z,22.03
2022-09-23T04:38:37.927Z,22.04
2022-09-23T04:39:46.292Z,22.01
2022-09-23T04:40:55.234Z,21.96
2022-09-23T04:42:03.575Z,21.91
2022-09-23T04:43:13.541Z,21.87
2022-09-23T04:44:29.951Z,21.82
2022-09-23T04:45:38.695Z,21.76
2022-09-23T04:46:51.013Z,21.72
2022-09-23T04:48:00.416Z,21.68
2022-09-23T04:49:09.330Z,21.63
2022-09-23T04:50:18.244Z,21.57
2022-09-23T04:51:28.215Z,21.50
2022-09-23T04:52:37.197Z,21.45
2022-09-23T04:53:48.466Z,21.41
2022-09-23T04:54:59.713Z,21.37
2022-09-23T04:56:15.755Z,21.33
2022-09-23T04:57:25.981Z,21.30
2022-09-23T04:58:36.125Z,21.27
2022-09-23T04:59:47.345Z,21.24
2022-09-23T05:01:02.992Z,21.22
2022-09-23T05:02:14.961Z,21.19
2022-09-23T05:03:25.764Z,21.16
2022-09-23T05:04:35.539Z,21.13
2022-09-23T05:05:48.533Z,21.09
2022-09-23T05:07:02.244Z,21.05
2022-09-23T05:08:16.219Z,21.01
2022-09-23T05:09:26.398Z,20.99
2022-09-23T05:10:36.808Z,20.97
2022-09-23T05:11:46.878Z,20.97
2022-09-23T05:12:59.286Z,20.96
2022-09-23T05:14:07.180Z,20.94
2022-09-23T05:15:18.022Z,20.91
2022-09-23T05:16:27.017Z,20.88
2022-09-23T05:17:35.551Z,20.85
2022-09-23T05:18:45.788Z,20.82
2022-09-23T05:19:55.873Z,20.78
2022-09-23T05:21:05.980Z,20.75
2022-09-23T05:22:13.692Z,20.70
2022-09-23T05:23:24.202Z,20.65
2022-09-23T05:24:34.786Z,20.58
2022-09-23T05:25:44.324Z,20.51
2022-09-23T05:26:53.904Z,20.47
2022-09-23T05:28:02.932Z,20.44
2022-09-23T05:29:10.903Z,20.44
2022-09-23T05:30:18.636Z,20.43
2022-09-23T05:31:29.529Z,20.40
2022-09-23T05:32:39.216Z,20.36
2022-09-23T05:33:53.655Z,20.31
2022-09-23T05:35:01.150Z,20.25
2022-09-23T05:36:10.229Z,20.19
2022-09-23T05:37:18.612Z,20.13
2022-09-23T05:38:27.981Z,20.09
2022-09-23T05:39:36.332Z,20.05
2022-09-23T05:40:45.612Z,20.01
2022-09-23T05:41:57.564Z,19.97
2022-09-23T05:43:06.869Z,19.94
2022-09-23T05:44:15.288Z,19.92
2022-09-23T05:45:25.480Z,19.91
2022-09-23T05:46:36.171Z,19.90
2022-09-23T05:47:45.653Z,19.86
2022-09-23T05:48:56.781Z,19.80
2022-09-23T05:50:10.251Z,19.72
2022-09-23T05:51:30.654Z,19.65
2022-09-23T05:52:43.297Z,19.61
2022-09-23T05:53:54.642Z,19.60
2022-09-23T05:55:03.373Z,19.59
2022-09-23T05:56:11.965Z,19.60
2022-09-23T05:57:21.991Z,19.62
2022-09-23T05:58:30.420Z,19.63
2022-09-23T05:59:39.871Z,19.62
2022-09-23T06:00:51.590Z,19.61
2022-09-23T06:02:00.309Z,19.60
2022-09-23T06:03:22.089Z,19.59
2022-09-23T06:04:32.790Z,19.58
2022-09-23T06:05:42.188Z,19.58
2022-09-23T06:06:53.258Z,19.55
2022-09-23T06:08:03.006Z,19.51
2022-09-23T06:09:14.699Z,19.48
2022-09-23T06:10:26.362Z,19.46
2022-09-23T06:11:36.071Z,19.43
2022-09-23T06:12:46.796Z,19.39
2022-09-23T06:14:04.952Z,19.36
2022-09-23T06:15:13.620Z,19.36
2022-09-23T06:16:23.674Z,19.38
2022-09-23T06:17:33.945Z,19.39
2022-09-23T06:18:43.902Z,19.39
2022-09-23T06:19:52.972Z,19.38
2022-09-23T06:21:03.763Z,19.36
2022-09-23T06:22:13.811Z,19.34
2022-09-23T06:23:25.590Z,19.30
2022-09-23T06:24:36.430Z,19.26
2022-09-23T06:25:48.597Z,19.23
2022-09-23T06:26:57.250Z,19.19
2022-09-23T06:28:06.026Z,19.15
2022-09-23T06:29:14.024Z,19.12
2022-09-23T06:30:21.593Z,19.09
2022-09-23T06:31:30.869Z,19.09
2022-09-23T06:32:39.559Z,19.09
2022-09-23T06:33:48.979Z,19.09
2022-09-23T06:34:57.965Z,19.08
2022-09-23T06:36:09.211Z,19.07
2022-09-23T06:37:20.262Z,19.04
2022-09-23T06:38:29.924Z,19.01
2022-09-23T06:39:40.549Z,18.97
2022-09-23T06:40:55.886Z,18.95
2022-09-23T06:42:09.024Z,18.95
2022-09-23T06:43:17.726Z,18.95
2022-09-23T06:44:25.693Z,18.94
2022-09-23T06:45:34.792Z,18.91
2022-09-23T06:46:44.246Z,18.89
2022-09-23T06:48:00.068Z,18.89
2022-09-23T06:49:08.658Z,18.86
2022-09-23T06:50:17.089Z,18.82
2022-09-23T06:51:29.426Z,18.79
2022-09-23T06:52:38.035Z,18.76
2022-09-23T06:53:47.525Z,18.72
2022-09-23T06:54:56.280Z,18.69
2022-09-23T06:56:09.191Z,18.65
2022-09-23T06:57:17.517Z,18.60
2022-09-23T06:58:28.450Z,18.54
2022-09-23T06:59:38.619Z,18.48
2022-09-23T07:00:49.638Z,18.40
2022-09-23T07:01:59.372Z,18.35
2022-09-23T07:03:11.471Z,18.30
2022-09-23T07:04:19.219Z,18.24
2022-09-23T07:05:27.741Z,18.18
2022-09-23T07:06:37.553Z,18.13
2022-09-23T07:07:49.719Z,18.07
2022-09-23T07:08:58.589Z,18.02
2022-09-23T07:10:08.394Z,17.98
2022-09-23T07:11:17.639Z,17.93
2022-09-23T07:12:27.416Z,17.88
2022-09-23T07:13:39.026Z,17.83
2022-09-23T07:14:49.253Z,17.82
2022-09-23T07:16:00.432Z,17.85
2022-09-23T07:17:08.933Z,17.89
2022-09-23T07:18:20.525Z,17.95
2022-09-23T07:19:29.446Z,18.01
2022-09-23T07:20:40.903Z,18.04
2022-09-23T07:21:51.452Z,18.05
2022-09-23T07:22:59.991Z,18.04
2022-09-23T07:24:10.732Z,18.02
2022-09-23T07:25:19.827Z,18.00
2022-09-23T07:26:29.049Z,18.01
2022-09-23T07:27:38.087Z,18.02
2022-09-23T07:28:47.537Z,18.03
2022-09-23T07:29:58.061Z,18.05
2022-09-23T07:31:08.539Z,18.06
2022-09-23T07:32:20.153Z,18.07
2022-09-23T07:33:32.777Z,18.08
2022-09-23T07:34:48.859Z,18.09
2022-09-23T07:36:00.158Z,18.08
2022-09-23T07:37:08.650Z,18.05
2022-09-23T07:38:18.128Z,18.03
2022-09-23T07:39:28.948Z,18.00
2022-09-23T07:40:37.721Z,17.97
2022-09-23T07:41:49.837Z,17.94
2022-09-23T07:42:58.052Z,17.93
2022-09-23T07:44:07.655Z,17.93
2022-09-23T07:45:16.601Z,17.92
2022-09-23T07:46:25.515Z,17.92
2022-09-23T07:47:34.261Z,17.92
2022-09-23T07:48:43.147Z,17.92
2022-09-23T07:49:55.865Z,17.91
2022-09-23T07:51:25.298Z,17.92
2022-09-23T07:52:34.670Z,17.89
2022-09-23T07:53:44.045Z,17.88
2022-09-23T07:54:53.754Z,17.85
2022-09-23T07:56:07.682Z,17.81
2022-09-23T07:57:15.905Z,17.78
2022-09-23T07:58:27.514Z,17.77
2022-09-23T07:59:37.922Z,17.75
2022-09-23T08:00:46.632Z,17.74
2022-09-23T08:01:56.046Z,17.73
2022-09-23T08:03:04.335Z,17.69
2022-09-23T08:04:25.549Z,17.65
2022-09-23T08:05:34.274Z,17.61
2022-09-23T08:06:56.073Z,17.59
2022-09-23T08:08:09.102Z,17.56
2022-09-23T08:09:20.673Z,17.54
2022-09-23T08:10:32.301Z,17.52
2022-09-23T08:11:44.118Z,17.52
2022-09-23T08:12:54.659Z,17.52
2022-09-23T08:14:06.085Z,17.51
2022-09-23T08:15:15.670Z,17.49
2022-09-23T08:16:23.762Z,17.47
2022-09-23T08:17:35.237Z,17.44
2022-09-23T08:18:48.860Z,17.41
2022-09-23T08:20:02.465Z,17.36
2022-09-23T08:21:11.716Z,17.32
2022-09-23T08:22:21.730Z,17.30
2022-09-23T08:23:35.695Z,17.29
2022-09-23T08:24:45.933Z,17.27
2022-09-23T08:26:01.777Z,17.23
2022-09-23T08:27:09.913Z,17.19
2022-09-23T08:28:21.349Z,17.16
2022-09-23T08:29:30.980Z,17.15
2022-09-23T08:30:42.117Z,17.14
2022-09-23T08:31:53.369Z,17.12
2022-09-23T08:33:04.191Z,17.09
2022-09-23T08:34:15.512Z,17.07
2022-09-23T08:35:24.061Z,17.08
2022-09-23T08:36:35.809Z,17.12
2022-09-23T08:37:47.405Z,17.18
2022-09-23T08:38:58.678Z,17.25
2022-09-23T08:40:10.527Z,17.29
2022-09-23T08:41:41.935Z,17.33
2022-09-23T08:42:52.047Z,17.36
2022-09-23T08:44:49.652Z,17.38
2022-09-23T08:46:05.011Z,17.39
2022-09-23T08:47:51.144Z,17.39
2022-09-23T08:49:00.654Z,17.39
2022-09-23T08:50:20.750Z,17.40
2022-09-23T08:51:33.953Z,17.41
2022-09-23T08:53:00.892Z,17.45
2022-09-23T08:54:12.992Z,17.49
2022-09-23T08:55:22.154Z,17.54
2022-09-23T08:56:30.884Z,17.57
2022-09-23T08:57:57.417Z,17.59
2022-09-23T08:59:34.707Z,17.60
2022-09-23T09:00:44.394Z,17.61
2022-09-23T09:02:18.492Z,17.61
2022-09-23T09:03:33.510Z,17.59
2022-09-23T09:04:44.752Z,17.57
2022-09-23T09:05:54.630Z,17.55
2022-09-23T09:08:40.603Z,17.44
2022-09-23T09:10:16.591Z,17.42
2022-09-23T09:11:26.584Z,17.39
2022-09-23T09:12:49.322Z,17.36
2022-09-23T09:14:31.495Z,17.32
2022-09-23T09:16:36.374Z,17.27
2022-09-23T09:18:13.206Z,17.21
2022-09-23T09:19:34.156Z,17.13
2022-09-23T09:20:49.121Z,17.09
2022-09-23T09:21:58.235Z,17.06
2022-09-23T09:23:25.910Z,17.05
2022-09-23T09:24:38.390Z,17.07
2022-09-23T09:25:51.815Z,17.08
2022-09-23T09:27:00.204Z,17.11
2022-09-23T09:28:37.686Z,17.14
2022-09-23T09:29:49.924Z,17.18
2022-09-23T09:31:29.619Z,17.22
2022-09-23T09:32:48.758Z,17.24
2022-09-23T09:34:07.348Z,17.26
2022-09-23T09:35:39.854Z,17.26
2022-09-23T09:37:08.463Z,17.26
2022-09-23T09:38:16.896Z,17.24
2022-09-23T09:39:26.400Z,17.23
2022-09-23T09:40:37.082Z,17.22
2022-09-23T09:41:52.294Z,17.19
2022-09-23T09:43:02.033Z,17.18
2022-09-23T09:44:23.318Z,17.19
2022-09-23T09:46:00.893Z,17.22
2022-09-23T09:47:33.861Z,17.23
2022-09-23T09:48:55.807Z,17.25
2022-09-23T09:50:19.142Z,17.24
2022-09-23T09:51:30.808Z,17.22
2022-09-23T09:52:42.434Z,17.20
2022-09-23T09:53:54.379Z,17.18
2022-09-23T09:55:19.399Z,17.17
2022-09-23T09:56:34.987Z,17.16
2022-09-23T09:58:07.306Z,17.17
2022-09-23T09:59:22.521Z,17.16
2022-09-23T10:00:38.515Z,17.15
2022-09-23T10:01:50.828Z,17.12
2022-09-23T10:03:00.726Z,17.09
2022-09-23T10:04:23.585Z,17.06
2022-09-23T10:05:52.717Z,17.02
2022-09-23T10:07:14.104Z,16.98
2022-09-23T10:08:31.662Z,16.97
2022-09-23T10:09:41.656Z,16.97
2022-09-23T10:11:03.716Z,16.97
2022-09-23T10:12:19.945Z,16.95
2022-09-23T10:13:29.429Z,16.92
2022-09-23T10:14:38.188Z,16.90
2022-09-23T10:15:48.132Z,16.87
2022-09-23T10:17:23.472Z,16.84
2022-09-23T10:18:55.220Z,16.82
2022-09-23T10:20:17.414Z,16.79
2022-09-23T10:21:30.750Z,16.77
2022-09-23T10:22:41.269Z,16.77
2022-09-23T10:23:55.422Z,16.77
2022-09-23T10:25:26.035Z,16.78
2022-09-23T10:26:48.754Z,16.77
2022-09-23T10:27:57.753Z,16.76
2022-09-23T10:29:22.013Z,16.75
2022-09-23T10:30:30.752Z,16.73
2022-09-23T10:31:40.249Z,16.71
2022-09-23T10:32:49.658Z,16.69
2022-09-23T10:34:02.537Z,16.67
2022-09-23T10:35:11.031Z,16.66
2022-09-23T10:36:20.762Z,16.65
2022-09-23T10:37:48.929Z,16.64
2022-09-23T10:39:29.202Z,16.62
2022-09-23T10:40:59.687Z,16.63
2022-09-23T10:43:10.515Z,16.64
2022-09-23T10:44:58.033Z,16.63
2022-09-23T10:46:54.344Z,16.63
2022-09-23T10:48:20.698Z,16.64
2022-09-23T10:49:43.200Z,16.65
2022-09-23T10:50:52.764Z,16.66
2022-09-23T10:52:33.793Z,16.68
2022-09-23T10:53:56.985Z,16.72
2022-09-23T10:55:14.150Z,16.75
2022-09-23T10:56:45.393Z,16.76
2022-09-23T10:58:25.227Z,16.76
2022-09-23T11:00:16.680Z,16.75
2022-09-23T11:01:40.262Z,16.72
2022-09-23T11:03:15.266Z,16.67
2022-09-23T11:05:01.393Z,16.63
2022-09-23T11:06:34.683Z,16.59
2022-09-23T11:08:19.587Z,16.57
2022-09-23T11:09:43.233Z,16.55
2022-09-23T11:11:16.264Z,16.52
2022-09-23T11:12:40.822Z,16.50
2022-09-23T11:14:18.754Z,16.48
2022-09-23T11:16:04.100Z,16.46
2022-09-23T11:17:16.889Z,16.47
2022-09-23T11:18:40.936Z,16.49
2022-09-23T11:19:52.783Z,16.50
2022-09-23T11:21:30.225Z,16.49
2022-09-23T11:22:45.754Z,16.46
2022-09-23T11:24:03.527Z,16.44
2022-09-23T11:25:25.669Z,16.43
2022-09-23T11:27:10.274Z,16.43
2022-09-23T11:28:41.737Z,16.43
2022-09-23T11:30:11.110Z,16.44
2022-09-23T11:31:59.675Z,16.48
2022-09-23T11:33:30.285Z,16.54
2022-09-23T11:34:48.897Z,16.56
2022-09-23T11:36:12.600Z,16.59
2022-09-23T11:37:30.313Z,16.60
2022-09-23T11:38:45.177Z,16.63
2022-09-23T11:40:10.448Z,16.64
2022-09-23T11:41:33.532Z,16.62
2022-09-23T11:42:49.601Z,16.60
2022-09-23T11:44:21.994Z,16.59
2022-09-23T11:45:34.941Z,16.57
2022-09-23T11:47:12.922Z,16.56
2022-09-23T11:49:01.497Z,16.55
2022-09-23T11:50:31.025Z,16.53
2022-09-23T11:52:03.267Z,16.51
2022-09-23T11:53:39.179Z,16.47
2022-09-23T11:55:20.260Z,16.45
2022-09-23T11:57:03.409Z,16.44
2022-09-23T11:58:38.167Z,16.45
2022-09-23T11:59:54.008Z,16.49
2022-09-23T12:01:08.795Z,16.52
2022-09-23T12:02:44.751Z,16.54
2022-09-23T12:04:25.798Z,16.56
2022-09-23T12:05:44.288Z,16.58
2022-09-23T12:07:07.093Z,16.60
2022-09-23T12:08:33.957Z,16.62
2022-09-23T12:10:03.756Z,16.65
2022-09-23T12:11:38.403Z,16.69
2022-09-23T12:13:29.311Z,16.72
2022-09-23T12:15:18.772Z,16.74
2022-09-23T12:17:10.245Z,16.76
2022-09-23T12:18:27.676Z,16.79
2022-09-23T12:19:54.095Z,16.84
2022-09-23T12:21:46.298Z,16.88
2022-09-23T12:23:17.165Z,16.92
2022-09-23T12:24:43.947Z,16.95
2022-09-23T12:25:59.367Z,16.96
2022-09-23T12:27:12.398Z,16.96
2022-09-23T12:28:21.110Z,16.96
2022-09-23T12:29:33.584Z,16.96
2022-09-23T12:30:41.858Z,16.97
2022-09-23T12:31:52.156Z,16.97
2022-09-23T12:33:11.647Z,16.96
2022-09-23T12:34:36.552Z,16.93
2022-09-23T12:35:46.971Z,16.89
2022-09-23T12:36:56.455Z,16.87
2022-09-23T12:38:04.754Z,16.88
2022-09-23T12:39:25.215Z,16.90
2022-09-23T12:40:38.679Z,16.97
2022-09-23T12:41:50.307Z,17.03
2022-09-23T12:43:02.350Z,17.11
2022-09-23T12:44:17.403Z,17.14
2022-09-23T12:45:37.151Z,17.15
2022-09-23T12:46:46.615Z,17.15
2022-09-23T12:47:57.645Z,17.14
2022-09-23T12:49:06.443Z,17.12
2022-09-23T12:51:04.464Z,17.10
2022-09-23T12:52:15.653Z,17.04
2022-09-23T12:53:43.215Z,17.00
2022-09-23T12:54:53.052Z,16.97
2022-09-23T12:56:24.779Z,16.94
2022-09-23T12:57:39.439Z,16.90
2022-09-23T12:58:50.842Z,16.88
2022-09-23T13:00:01.391Z,16.87
2022-09-23T13:01:26.640Z,16.85
2022-09-23T13:03:12.422Z,16.83
2022-09-23T13:05:16.120Z,16.79
2022-09-23T13:06:42.989Z,16.73
2022-09-23T13:07:53.725Z,16.68
2022-09-23T13:09:01.991Z,16.65
2022-09-23T13:11:01.833Z,16.64
2022-09-23T13:12:16.149Z,16.61
2022-09-23T13:13:44.763Z,16.60
2022-09-23T13:14:55.638Z,16.59
2022-09-23T13:16:22.808Z,16.60
2022-09-23T13:17:40.159Z,16.61
2022-09-23T13:19:29.778Z,16.62
2022-09-23T13:20:40.189Z,16.63
2022-09-23T13:21:48.647Z,16.65
2022-09-23T13:22:57.689Z,16.67
2022-09-23T13:24:24.213Z,16.69
2022-09-23T13:25:35.100Z,16.69
2022-09-23T13:26:55.494Z,16.71
2022-09-23T13:28:07.003Z,16.73
2022-09-23T13:29:35.143Z,16.76
2022-09-23T13:30:52.896Z,16.79
2022-09-23T13:32:04.661Z,16.81
2022-09-23T13:33:20.845Z,16.83
2022-09-23T13:34:34.825Z,16.83
2022-09-23T13:35:54.127Z,16.82
2022-09-23T13:37:44.710Z,16.82
2022-09-23T13:38:54.196Z,16.81
2022-09-23T13:40:33.625Z,16.81
2022-09-23T13:41:46.426Z,16.82
2022-09-23T13:43:20.006Z,16.84
2022-09-23T13:44:27.801Z,16.85
2022-09-23T13:45:39.836Z,16.85
2022-09-23T13:46:56.487Z,16.86
2022-09-23T13:48:09.924Z,16.86
2022-09-23T13:49:30.366Z,16.87
2022-09-23T13:50:44.098Z,16.86
2022-09-23T13:51:53.112Z,16.86
2022-09-23T13:53:03.258Z,16.85
2022-09-23T13:54:30.734Z,16.84
2022-09-23T13:55:40.870Z,16.82
2022-09-23T13:56:51.845Z,16.82
2022-09-23T13:58:16.217Z,16.83
2022-09-23T13:59:40.896Z,16.86
2022-09-23T14:00:53.043Z,16.93
2022-09-23T14:02:14.680Z,17.00
2022-09-23T14:03:38.851Z,17.21
2022-09-23T14:04:50.917Z,17.54
2022-09-23T14:06:04.997Z,17.85
2022-09-23T14:07:16.518Z,18.18
2022-09-23T14:08:24.328Z,18.52
2022-09-23T14:09:37.439Z,18.84
2022-09-23T14:10:47.689Z,19.15
2022-09-23T14:11:59.177Z,19.43
2022-09-23T14:13:07.092Z,19.69
2022-09-23T14:14:16.459Z,19.90
2022-09-23T14:15:24.281Z,20.12
2022-09-23T14:16:38.848Z,20.27
2022-09-23T14:18:04.918Z,20.43
2022-09-23T14:19:25.859Z,20.70
2022-09-23T14:20:34.054Z,20.95
2022-09-23T14:21:42.821Z,21.10
2022-09-23T14:23:05.561Z,21.12
2022-09-23T14:24:23.622Z,21.00
2022-09-23T14:25:32.929Z,20.95
2022-09-23T14:26:41.858Z,20.91
2022-09-23T14:27:51.184Z,20.91
2022-09-23T14:29:00.870Z,20.94
2022-09-23T14:30:16.972Z,21.03
2022-09-23T14:31:26.086Z,21.24
2022-09-23T14:32:37.239Z,21.53
2022-09-23T14:33:48.826Z,21.89
2022-09-23T14:35:04.843Z,22.32
2022-09-23T14:36:37.401Z,22.77
2022-09-23T14:38:07.057Z,23.27
2022-09-23T14:39:15.607Z,23.74
2022-09-23T14:40:41.194Z,24.05
2022-09-23T14:41:51.404Z,24.38
2022-09-23T14:43:30.889Z,24.66
2022-09-23T14:44:40.184Z,24.86
2022-09-23T14:46:00.278Z,24.89
2022-09-23T14:47:12.121Z,24.83
2022-09-23T14:48:33.460Z,24.85
2022-09-23T14:50:10.530Z,24.99
2022-09-23T14:51:18.492Z,25.27
2022-09-23T14:52:28.306Z,25.54
2022-09-23T14:53:44.092Z,25.80
2022-09-23T14:54:55.224Z,26.01
2022-09-23T14:56:21.942Z,26.16
2022-09-23T14:57:33.399Z,26.28
2022-09-23T14:58:51.015Z,26.45
2022-09-23T15:00:21.956Z,26.65
2022-09-23T15:01:37.417Z,26.88
2022-09-23T15:02:47.271Z,26.92
2022-09-23T15:03:56.729Z,26.85
2022-09-23T15:05:21.756Z,26.72
2022-09-23T15:06:29.595Z,26.64
2022-09-23T15:07:40.326Z,26.63
2022-09-23T15:08:49.473Z,26.79
2022-09-23T15:09:58.347Z,27.12
2022-09-23T15:11:08.388Z,27.52
2022-09-23T15:12:22.614Z,27.89
2022-09-23T15:13:35.598Z,28.26
2022-09-23T15:14:49.279Z,28.61
2022-09-23T15:15:58.233Z,28.85
2022-09-23T15:17:35.276Z,29.01
2022-09-23T15:18:47.602Z,29.19
2022-09-23T15:20:10.343Z,29.23
2022-09-23T15:21:19.867Z,29.22
2022-09-23T15:22:29.346Z,29.25
2022-09-23T15:23:51.385Z,29.36
2022-09-23T15:25:21.634Z,29.57
2022-09-23T15:26:51.314Z,29.77
2022-09-23T15:28:15.988Z,30.00
2022-09-23T15:29:25.672Z,30.18
2022-09-23T15:30:34.531Z,30.33
2022-09-23T15:31:42.525Z,30.45
2022-09-23T15:32:53.556Z,30.55
2022-09-23T15:34:02.755Z,30.75
2022-09-23T15:35:17.549Z,30.99
2022-09-23T15:36:29.930Z,31.22
2022-09-23T15:37:38.689Z,31.48
2022-09-23T15:38:46.919Z,31.70
2022-09-23T15:39:54.961Z,31.91
2022-09-23T15:41:05.376Z,32.03
2022-09-23T15:42:16.233Z,32.09
2022-09-23T15:43:25.858Z,32.20
2022-09-23T15:44:34.969Z,32.34
2022-09-23T15:45:47.900Z,32.48
2022-09-23T15:46:58.422Z,32.53
2022-09-23T15:48:12.639Z,32.55
2022-09-23T15:49:43.579Z,32.58
2022-09-23T15:50:56.199Z,32.68
2022-09-23T15:52:07.135Z,32.64
2022-09-23T15:53:22.239Z,32.55
2022-09-23T15:54:31.415Z,32.54
2022-09-23T15:55:39.888Z,32.58
2022-09-23T15:56:53.236Z,32.65
2022-09-23T15:58:02.426Z,32.72
2022-09-23T15:59:10.456Z,32.77
2022-09-23T16:00:20.145Z,32.81
2022-09-23T16:01:31.593Z,32.87
2022-09-23T16:02:40.335Z,32.88
2022-09-23T16:03:49.183Z,32.89
2022-09-23T16:04:59.142Z,32.91
2022-09-23T16:06:09.150Z,33.05
2022-09-23T16:07:18.537Z,33.04
2022-09-23T16:08:30.251Z,32.89
2022-09-23T16:09:39.895Z,32.78
2022-09-23T16:10:49.667Z,32.75
2022-09-23T16:11:59.138Z,32.64
2022-09-23T16:13:14.451Z,32.47
2022-09-23T16:14:22.357Z,32.27
2022-09-23T16:15:36.833Z,32.16
2022-09-23T16:16:49.108Z,32.13
2022-09-23T16:17:58.188Z,32.27
2022-09-23T16:19:08.136Z,32.38
2022-09-23T16:20:19.978Z,32.34
2022-09-23T16:21:28.497Z,32.17
2022-09-23T16:22:37.553Z,31.95
2022-09-23T16:23:51.027Z,31.86
2022-09-23T16:25:00.868Z,31.87
2022-09-23T16:26:28.408Z,31.95
2022-09-23T16:27:38.567Z,32.07
2022-09-23T16:28:48.371Z,32.34
2022-09-23T16:30:00.179Z,32.60